createdAt,value
2023-04-09T00:00:56.682Z,106.65
2023-04-09T00:01:56.690Z,106.25
2023-04-09T00:02:56.805Z,104.30
2023-04-09T00:03:56.734Z,106.74
2023-04-09T00:04:56.706Z,105.49
2023-04-09T00:05:56.715Z,107.90
2023-04-09T00:06:56.708Z,108.25
2023-04-09T00:07:56.725Z,109.71
2023-04-09T00:08:56.740Z,105.87
2023-04-09T00:09:56.752Z,108.10
2023-04-09T00:10:56.752Z,105.21
2023-04-09T00:11:56.824Z,105.86
2023-04-09T00:12:56.771Z,108.18
2023-04-09T00:13:56.790Z,104.94
2023-04-09T00:14:56.811Z,107.24
2023-04-09T00:15:56.891Z,106.61
2023-04-09T00:16:56.847Z,107.37
2023-04-09T00:17:56.880Z,107.87
2023-04-09T00:18:56.872Z,108.93
2023-04-09T00:19:57.860Z,109.04
2023-04-09T00:20:56.851Z,109.06
2023-04-09T00:21:56.854Z,106.25
2023-04-09T00:22:56.900Z,109.05
2023-04-09T00:23:56.810Z,105.45
2023-04-09T00:24:56.791Z,107.38
2023-04-09T00:25:56.784Z,109.51
2023-04-09T00:26:56.768Z,107.92
2023-04-09T00:27:56.757Z,106.99
2023-04-09T00:28:56.752Z,108.19
2023-04-09T00:29:56.826Z,109.82
2023-04-09T00:30:56.718Z,105.59
2023-04-09T00:31:56.763Z,109.20
2023-04-09T00:32:56.774Z,105.84
2023-04-09T00:33:56.682Z,107.41
2023-04-09T00:34:56.667Z,110.01
2023-04-09T00:35:56.791Z,107.72
2023-04-09T00:36:56.714Z,106.70
2023-04-09T00:37:56.632Z,105.29
2023-04-09T00:38:56.618Z,104.89
2023-04-09T00:39:56.608Z,107.06
2023-04-09T00:40:56.595Z,106.44
2023-04-09T00:41:56.580Z,107.32
2023-04-09T00:42:56.598Z,107.24
2023-04-09T00:43:56.591Z,104.47
2023-04-09T00:44:56.609Z,106.57
2023-04-09T00:45:56.648Z,107.55
2023-04-09T00:46:56.640Z,109.21
2023-04-09T00:47:56.694Z,109.46
2023-04-09T00:48:56.684Z,110.15
2023-04-09T00:49:57.254Z,107.61
2023-04-09T00:50:56.735Z,103.80
2023-04-09T00:51:56.720Z,108.74
2023-04-09T00:52:56.742Z,105.55
2023-04-09T00:53:56.774Z,106.94
2023-04-09T00:54:56.775Z,106.32
2023-04-09T00:55:56.797Z,106.81
2023-04-09T00:56:56.814Z,107.51
2023-04-09T00:57:56.839Z,108.39
2023-04-09T00:58:56.870Z,109.56
2023-04-09T00:59:56.882Z,106.04
2023-04-09T01:00:56.962Z,104.25
2023-04-09T01:01:57.297Z,107.08
2023-04-09T01:02:56.981Z,106.17
2023-04-09T01:03:56.936Z,110.21
2023-04-09T01:04:56.954Z,107.98
2023-04-09T01:05:56.976Z,107.09
2023-04-09T01:06:58.759Z,107.17
2023-04-09T01:07:57.068Z,106.13
2023-04-09T01:08:57.113Z,105.21
2023-04-09T01:09:57.080Z,105.52
2023-04-09T01:10:57.063Z,105.99
2023-04-09T01:11:57.076Z,106.13
2023-04-09T01:12:57.089Z,105.13
2023-04-09T01:13:57.112Z,106.12
2023-04-09T01:14:57.134Z,107.32
2023-04-09T01:15:57.147Z,104.78
2023-04-09T01:16:57.203Z,109.72
2023-04-09T01:17:57.239Z,105.25
2023-04-09T01:18:57.222Z,105.09
2023-04-09T01:19:57.215Z,105.88
2023-04-09T01:20:57.217Z,105.05
2023-04-09T01:21:57.223Z,105.61
2023-04-09T01:22:57.265Z,108.43
2023-04-09T01:23:57.255Z,107.56
2023-04-09T01:24:57.257Z,108.35
2023-04-09T01:25:57.269Z,107.49
2023-04-09T01:26:57.311Z,106.63
2023-04-09T01:27:57.302Z,104.53
2023-04-09T01:28:57.312Z,110.12
2023-04-09T01:29:57.328Z,107.87
2023-04-09T01:30:57.388Z,108.76
2023-04-09T01:31:57.346Z,104.91
2023-04-09T01:32:57.393Z,105.25
2023-04-09T01:33:57.346Z,106.01
2023-04-09T01:34:57.364Z,106.54
2023-04-09T01:35:57.387Z,107.21
2023-04-09T01:36:57.398Z,109.09
2023-04-09T01:37:57.551Z,102.95
2023-04-09T01:38:57.450Z,102.71
2023-04-09T01:39:57.436Z,106.12
2023-04-09T01:40:57.438Z,106.81
2023-04-09T01:41:57.588Z,103.42
2023-04-09T01:42:57.467Z,108.17
2023-04-09T01:43:57.473Z,103.13
2023-04-09T01:44:57.494Z,105.02
2023-04-09T01:45:57.540Z,107.80
2023-04-09T01:46:57.562Z,105.18
2023-04-09T01:47:57.609Z,104.62
2023-04-09T01:48:57.637Z,107.54
2023-04-09T01:49:57.572Z,102.99
2023-04-09T01:50:57.566Z,106.09
2023-04-09T01:51:57.589Z,107.24
2023-04-09T01:52:57.606Z,105.86
2023-04-09T01:53:57.628Z,102.99
2023-04-09T01:54:57.630Z,104.53
2023-04-09T01:55:57.637Z,103.87
2023-04-09T01:56:57.659Z,106.85
2023-04-09T01:57:58.288Z,105.09
2023-04-09T01:58:57.686Z,107.11
2023-04-09T01:59:57.691Z,105.04
2023-04-09T02:00:57.765Z,105.10
2023-04-09T02:01:57.759Z,105.17
2023-04-09T02:02:57.796Z,103.68
2023-04-09T02:03:58.064Z,105.37
2023-04-09T02:04:57.752Z,105.86
2023-04-09T02:05:57.758Z,106.37
2023-04-09T02:06:57.764Z,103.91
2023-04-09T02:07:57.774Z,108.56
2023-04-09T02:08:57.793Z,105.75
2023-04-09T02:09:57.794Z,103.21
2023-04-09T02:10:57.814Z,108.04
2023-04-09T02:11:57.828Z,106.01
2023-04-09T02:12:57.846Z,105.08
2023-04-09T02:13:57.859Z,104.09
2023-04-09T02:14:57.869Z,102.25
2023-04-09T02:15:57.952Z,104.97
2023-04-09T02:16:57.891Z,103.36
2023-04-09T02:17:58.023Z,102.30
2023-04-09T02:18:57.997Z,104.75
2023-04-09T02:19:57.933Z,105.19
2023-04-09T02:20:57.950Z,104.10
2023-04-09T02:21:57.955Z,106.05
2023-04-09T02:22:57.979Z,103.91
2023-04-09T02:23:57.977Z,104.37
2023-04-09T02:24:58.049Z,104.50
2023-04-09T02:25:58.006Z,104.75
2023-04-09T02:26:58.018Z,103.56
2023-04-09T02:27:58.031Z,105.85
2023-04-09T02:28:58.051Z,103.51
2023-04-09T02:29:58.064Z,103.46
2023-04-09T02:30:58.082Z,104.71
2023-04-09T02:31:58.094Z,105.78
2023-04-09T02:32:58.128Z,104.77
2023-04-09T02:33:58.250Z,106.88
2023-04-09T02:34:58.120Z,105.46
2023-04-09T02:35:58.203Z,105.27
2023-04-09T02:36:58.279Z,103.68
2023-04-09T02:37:58.192Z,101.32
2023-04-09T02:38:58.194Z,105.63
2023-04-09T02:39:58.395Z,100.69
2023-04-09T02:40:58.228Z,105.36
2023-04-09T02:41:58.246Z,104.38
2023-04-09T02:42:58.268Z,103.42
2023-04-09T02:43:58.296Z,104.06
2023-04-09T02:44:58.298Z,102.46
2023-04-09T02:45:58.321Z,105.96
2023-04-09T02:46:58.303Z,103.58
2023-04-09T02:47:58.336Z,103.88
2023-04-09T02:48:58.321Z,105.73
2023-04-09T02:49:58.446Z,105.28
2023-04-09T02:50:58.362Z,101.80
2023-04-09T02:51:58.381Z,104.98
2023-04-09T02:52:58.377Z,106.54
2023-04-09T02:53:58.388Z,104.74
2023-04-09T02:54:58.415Z,104.32
2023-04-09T02:55:58.435Z,105.17
2023-04-09T02:56:58.494Z,107.80
2023-04-09T02:57:58.444Z,104.86
2023-04-09T02:58:58.455Z,106.97
2023-04-09T02:59:58.474Z,108.42
2023-04-09T03:00:58.504Z,103.36
2023-04-09T03:01:58.696Z,106.15
2023-04-09T03:02:58.627Z,101.80
2023-04-09T03:03:58.685Z,107.83
2023-04-09T03:04:58.544Z,105.29
2023-04-09T03:05:58.567Z,106.55
2023-04-09T03:06:58.579Z,106.31
2023-04-09T03:07:58.585Z,107.37
2023-04-09T03:08:58.596Z,104.34
2023-04-09T03:09:58.612Z,103.11
2023-04-09T03:10:58.627Z,106.18
2023-04-09T03:11:58.639Z,106.78
2023-04-09T03:12:58.653Z,100.80
2023-04-09T03:13:58.655Z,104.67
2023-04-09T03:14:58.682Z,103.39
2023-04-09T03:15:58.684Z,106.76
2023-04-09T03:16:58.687Z,103.36
2023-04-09T03:17:58.746Z,103.40
2023-04-09T03:18:58.722Z,104.25
2023-04-09T03:19:58.731Z,105.51
2023-04-09T03:20:58.741Z,103.60
2023-04-09T03:21:58.766Z,102.69
2023-04-09T03:22:58.778Z,105.90
2023-04-09T03:23:58.783Z,105.92
2023-04-09T03:24:58.795Z,101.00
2023-04-09T03:25:58.805Z,105.26
2023-04-09T03:26:58.813Z,104.14
2023-04-09T03:27:58.828Z,103.45
2023-04-09T03:28:58.842Z,103.59
2023-04-09T03:29:58.840Z,103.92
2023-04-09T03:30:58.854Z,105.40
2023-04-09T03:31:58.853Z,101.37
2023-04-09T03:32:58.918Z,105.32
2023-04-09T03:33:58.868Z,105.62
2023-04-09T03:34:59.854Z,106.12
2023-04-09T03:35:59.006Z,101.59
2023-04-09T03:36:59.063Z,103.56
2023-04-09T03:37:58.920Z,104.32
2023-04-09T03:38:58.921Z,106.62
2023-04-09T03:39:58.996Z,103.34
2023-04-09T03:40:59.033Z,102.80
2023-04-09T03:41:59.008Z,101.22
2023-04-09T03:42:58.937Z,101.41
2023-04-09T03:43:58.946Z,101.78
2023-04-09T03:44:58.957Z,101.75
2023-04-09T03:45:58.963Z,102.34
2023-04-09T03:46:58.996Z,101.20
2023-04-09T03:47:59.046Z,105.37
2023-04-09T03:48:59.374Z,104.32
2023-04-09T03:49:58.986Z,102.32
2023-04-09T03:50:59.071Z,104.05
2023-04-09T03:51:59.043Z,103.68
2023-04-09T03:52:59.049Z,100.75
2023-04-09T03:53:59.026Z,103.15
2023-04-09T03:54:59.036Z,102.85
2023-04-09T03:55:59.066Z,104.95
2023-04-09T03:56:59.061Z,103.25
2023-04-09T03:57:59.069Z,105.30
2023-04-09T03:58:59.169Z,104.06
2023-04-09T03:59:59.121Z,104.06
2023-04-09T04:00:59.141Z,105.21
2023-04-09T04:01:59.164Z,102.42
2023-04-09T04:02:59.333Z,101.87
2023-04-09T04:03:59.241Z,101.09
2023-04-09T04:04:59.138Z,105.93
2023-04-09T04:05:59.146Z,106.05
2023-04-09T04:06:59.178Z,103.11
2023-04-09T04:07:59.181Z,102.90
2023-04-09T04:08:59.300Z,103.11
2023-04-09T04:09:59.221Z,104.29
2023-04-09T04:10:59.210Z,102.66
2023-04-09T04:11:59.216Z,104.74
2023-04-09T04:12:59.266Z,104.35
2023-04-09T04:13:59.267Z,103.19
2023-04-09T04:14:59.274Z,106.06
2023-04-09T04:15:59.293Z,100.20
2023-04-09T04:16:59.267Z,101.99
2023-04-09T04:17:59.309Z,104.76
2023-04-09T04:18:59.295Z,102.43
2023-04-09T04:19:59.342Z,103.79
2023-04-09T04:20:59.324Z,105.22
2023-04-09T04:21:59.338Z,102.46
2023-04-09T04:22:59.340Z,103.43
2023-04-09T04:23:59.342Z,102.91
2023-04-09T04:24:59.353Z,104.08
2023-04-09T04:26:00.268Z,101.36
2023-04-09T04:26:59.374Z,103.99
2023-04-09T04:27:59.389Z,103.52
2023-04-09T04:28:59.387Z,103.88
2023-04-09T04:29:59.424Z,102.61
2023-04-09T04:30:59.402Z,101.22
2023-04-09T04:31:59.472Z,102.89
2023-04-09T04:32:59.479Z,102.37
2023-04-09T04:33:59.428Z,102.60
2023-04-09T04:34:59.537Z,103.21
2023-04-09T04:35:59.490Z,105.23
2023-04-09T04:36:59.448Z,101.31
2023-04-09T04:37:59.444Z,105.70
2023-04-09T04:38:59.463Z,105.39
2023-04-09T04:39:59.457Z,103.74
2023-04-09T04:40:59.471Z,102.44
2023-04-09T04:41:59.471Z,103.21
2023-04-09T04:42:59.489Z,103.53
2023-04-09T04:43:59.503Z,104.80
2023-04-09T04:44:59.506Z,102.80
2023-04-09T04:45:59.530Z,105.98
2023-04-09T04:46:59.514Z,102.46
2023-04-09T04:47:59.563Z,103.19
2023-04-09T04:48:59.523Z,103.03
2023-04-09T04:49:59.532Z,103.16
2023-04-09T04:50:59.539Z,102.61
2023-04-09T04:51:59.551Z,101.78
2023-04-09T04:52:59.554Z,104.40
2023-04-09T04:53:59.624Z,99.32
2023-04-09T04:54:59.561Z,101.07
2023-04-09T04:55:59.572Z,101.02
2023-04-09T04:56:59.578Z,103.67
2023-04-09T04:57:59.580Z,105.67
2023-04-09T04:58:59.599Z,103.44
2023-04-09T05:00:00.457Z,102.08
2023-04-09T05:00:59.656Z,103.31
2023-04-09T05:01:59.687Z,105.61
2023-04-09T05:02:59.786Z,105.13
2023-04-09T05:03:59.643Z,102.49
2023-04-09T05:04:59.604Z,106.37
2023-04-09T05:05:59.607Z,101.85
2023-04-09T05:06:59.613Z,100.93
2023-04-09T05:07:59.615Z,98.56
2023-04-09T05:08:59.639Z,99.77
2023-04-09T05:09:59.640Z,103.09
2023-04-09T05:10:59.645Z,102.66
2023-04-09T05:11:59.657Z,103.02
2023-04-09T05:12:59.657Z,103.09
2023-04-09T05:14:00.448Z,101.43
2023-04-09T05:14:59.654Z,105.09
2023-04-09T05:15:59.663Z,105.29
2023-04-09T05:16:59.795Z,101.98
2023-04-09T05:17:59.741Z,100.46
2023-04-09T05:18:59.680Z,102.83
2023-04-09T05:19:59.716Z,97.71
2023-04-09T05:20:59.701Z,102.24
2023-04-09T05:21:59.708Z,99.19
2023-04-09T05:22:59.710Z,102.49
2023-04-09T05:23:59.721Z,102.41
2023-04-09T05:24:59.730Z,100.90
2023-04-09T05:25:59.726Z,99.69
2023-04-09T05:26:59.734Z,104.53
2023-04-09T05:27:59.734Z,101.79
2023-04-09T05:28:59.766Z,98.03
2023-04-09T05:30:00.917Z,100.03
2023-04-09T05:30:59.810Z,101.70
2023-04-09T05:31:59.736Z,100.12
2023-04-09T05:32:59.780Z,97.07
2023-04-09T05:33:59.741Z,101.36
2023-04-09T05:34:59.738Z,100.25
2023-04-09T05:35:59.762Z,104.67
2023-04-09T05:36:59.741Z,103.11
2023-04-09T05:37:59.734Z,104.15
2023-04-09T05:38:59.767Z,102.76
2023-04-09T05:39:59.711Z,103.31
2023-04-09T05:40:59.741Z,100.96
2023-04-09T05:41:59.778Z,99.47
2023-04-09T05:42:59.758Z,100.59
2023-04-09T05:44:00.961Z,101.05
2023-04-09T05:44:59.741Z,100.03
2023-04-09T05:45:59.740Z,101.88
2023-04-09T05:46:59.736Z,101.57
2023-04-09T05:47:59.789Z,101.61
2023-04-09T05:49:00.361Z,103.44
2023-04-09T05:49:59.738Z,99.59
2023-04-09T05:51:00.935Z,98.64
2023-04-09T05:51:59.738Z,101.54
2023-04-09T05:52:59.740Z,100.90
2023-04-09T05:53:59.743Z,100.62
2023-04-09T05:54:59.742Z,100.90
2023-04-09T05:55:59.789Z,100.01
2023-04-09T05:56:59.832Z,99.89
2023-04-09T05:57:59.743Z,99.67
2023-04-09T05:58:59.746Z,101.83
2023-04-09T05:59:59.738Z,100.90
2023-04-09T06:00:59.745Z,101.06
2023-04-09T06:01:59.847Z,97.00
2023-04-09T06:02:59.814Z,99.57
2023-04-09T06:04:00.121Z,98.10
2023-04-09T06:04:59.799Z,99.37
2023-04-09T06:05:59.755Z,101.24
2023-04-09T06:06:59.747Z,96.81
2023-04-09T06:07:59.755Z,100.19
2023-04-09T06:08:59.755Z,101.37
2023-04-09T06:09:59.741Z,102.60
2023-04-09T06:10:59.747Z,99.89
2023-04-09T06:11:59.741Z,97.22
2023-04-09T06:12:59.756Z,97.85
2023-04-09T06:14:00.407Z,101.09
2023-04-09T06:14:59.735Z,97.61
2023-04-09T06:15:59.754Z,99.79
2023-04-09T06:16:59.724Z,100.70
2023-04-09T06:17:59.769Z,99.09
2023-04-09T06:18:59.720Z,103.80
2023-04-09T06:19:59.723Z,98.22
2023-04-09T06:20:59.730Z,99.13
2023-04-09T06:21:59.736Z,98.60
2023-04-09T06:22:59.735Z,97.60
2023-04-09T06:23:59.884Z,100.02
2023-04-09T06:24:59.740Z,98.88
2023-04-09T06:25:59.734Z,98.19
2023-04-09T06:26:59.799Z,99.02
2023-04-09T06:27:59.722Z,97.18
2023-04-09T06:28:59.714Z,98.34
2023-04-09T06:29:59.714Z,100.20
2023-04-09T06:30:59.774Z,97.08
2023-04-09T06:31:59.700Z,96.97
2023-04-09T06:32:59.756Z,98.00
2023-04-09T06:33:59.692Z,99.88
2023-04-09T06:34:59.701Z,98.18
2023-04-09T06:35:59.701Z,97.60
2023-04-09T06:36:59.694Z,93.88
2023-04-09T06:37:59.699Z,97.82
2023-04-09T06:38:59.737Z,96.45
2023-04-09T06:40:01.277Z,97.04
2023-04-09T06:40:59.718Z,97.66
2023-04-09T06:41:59.751Z,98.37
2023-04-09T06:42:59.724Z,96.98
2023-04-09T06:43:59.718Z,98.44
2023-04-09T06:44:59.708Z,99.24
2023-04-09T06:45:59.716Z,96.26
2023-04-09T06:46:59.725Z,98.88
2023-04-09T06:47:59.935Z,94.87
2023-04-09T06:48:59.741Z,98.58
2023-04-09T06:49:59.746Z,97.68
2023-04-09T06:50:59.745Z,96.44
2023-04-09T06:51:59.762Z,96.56
2023-04-09T06:52:59.796Z,97.88
2023-04-09T06:53:59.864Z,96.67
2023-04-09T06:54:59.792Z,96.75
2023-04-09T06:55:59.824Z,93.67
2023-04-09T06:56:59.924Z,96.14
2023-04-09T06:57:59.806Z,96.83
2023-04-09T06:58:59.822Z,98.09
2023-04-09T06:59:59.806Z,97.74
2023-04-09T07:01:00.035Z,99.44
2023-04-09T07:01:59.854Z,96.12
2023-04-09T07:02:59.903Z,97.82
2023-04-09T07:04:00.000Z,98.42
2023-04-09T07:04:59.827Z,99.14
2023-04-09T07:05:59.823Z,97.30
2023-04-09T07:06:59.796Z,97.42
2023-04-09T07:07:59.790Z,98.20
2023-04-09T07:08:59.780Z,95.94
2023-04-09T07:09:59.766Z,95.43
2023-04-09T07:10:59.760Z,95.38
2023-04-09T07:11:59.766Z,95.11
2023-04-09T07:12:59.763Z,95.56
2023-04-09T07:13:59.753Z,95.18
2023-04-09T07:14:59.740Z,96.11
2023-04-09T07:15:59.748Z,96.11
2023-04-09T07:16:59.740Z,94.60
2023-04-09T07:17:59.774Z,100.06
2023-04-09T07:18:59.746Z,95.81
2023-04-09T07:19:59.745Z,94.09
2023-04-09T07:21:00.186Z,96.28
2023-04-09T07:21:59.779Z,96.97
2023-04-09T07:22:59.813Z,93.65
2023-04-09T07:23:59.808Z,95.37
2023-04-09T07:24:59.792Z,96.42
2023-04-09T07:25:59.773Z,93.62
2023-04-09T07:26:59.787Z,95.06
2023-04-09T07:27:59.774Z,93.06
2023-04-09T07:28:59.774Z,96.04
2023-04-09T07:29:59.770Z,96.46
2023-04-09T07:30:59.757Z,94.24
2023-04-09T07:31:59.759Z,96.95
2023-04-09T07:32:59.753Z,95.09
2023-04-09T07:33:59.704Z,95.11
2023-04-09T07:35:00.359Z,94.63
2023-04-09T07:35:59.681Z,95.29
2023-04-09T07:36:59.664Z,94.27
2023-04-09T07:37:59.651Z,93.57
2023-04-09T07:38:59.666Z,93.34
2023-04-09T07:39:59.674Z,93.09
2023-04-09T07:40:59.652Z,93.19
2023-04-09T07:41:59.651Z,93.40
2023-04-09T07:42:59.644Z,94.53
2023-04-09T07:43:59.630Z,93.65
2023-04-09T07:44:59.815Z,94.91
2023-04-09T07:45:59.603Z,93.55
2023-04-09T07:46:59.626Z,94.95
2023-04-09T07:47:59.681Z,93.66
2023-04-09T07:48:59.623Z,93.42
2023-04-09T07:49:59.592Z,92.94
2023-04-09T07:50:59.660Z,95.82
2023-04-09T07:51:59.584Z,95.31
2023-04-09T07:52:59.572Z,94.38
2023-04-09T07:53:59.560Z,97.10
2023-04-09T07:54:59.539Z,94.98
2023-04-09T07:55:59.544Z,95.28
2023-04-09T07:56:59.530Z,94.61
2023-04-09T07:57:59.502Z,95.77
2023-04-09T07:58:59.500Z,94.82
2023-04-09T07:59:59.487Z,96.57
2023-04-09T08:00:59.479Z,94.80
2023-04-09T08:01:59.623Z,91.58
2023-04-09T08:02:59.678Z,93.80
2023-04-09T08:03:59.580Z,93.93
2023-04-09T08:04:59.614Z,91.91
2023-04-09T08:05:59.459Z,93.98
2023-04-09T08:06:59.455Z,93.13
2023-04-09T08:07:59.440Z,92.54
2023-04-09T08:08:59.424Z,94.01
2023-04-09T08:09:59.415Z,93.93
2023-04-09T08:10:59.407Z,94.65
2023-04-09T08:11:59.416Z,93.09
2023-04-09T08:12:59.561Z,94.77
2023-04-09T08:13:59.419Z,93.30
2023-04-09T08:14:59.352Z,91.77
2023-04-09T08:15:59.386Z,93.39
2023-04-09T08:16:59.410Z,94.65
2023-04-09T08:17:59.468Z,93.38
2023-04-09T08:18:59.358Z,92.37
2023-04-09T08:19:59.353Z,93.84
2023-04-09T08:20:59.489Z,93.87
2023-04-09T08:21:59.328Z,91.86
2023-04-09T08:22:59.337Z,92.43
2023-04-09T08:23:59.315Z,92.57
2023-04-09T08:25:00.252Z,92.34
2023-04-09T08:25:59.293Z,91.19
2023-04-09T08:26:59.264Z,93.65
2023-04-09T08:27:59.236Z,93.53
2023-04-09T08:28:59.387Z,92.38
2023-04-09T08:29:59.208Z,90.31
2023-04-09T08:30:59.183Z,91.40
2023-04-09T08:32:00.006Z,89.29
2023-04-09T08:32:59.235Z,91.47
2023-04-09T08:33:59.116Z,90.65
2023-04-09T08:34:59.383Z,89.96
2023-04-09T08:35:59.927Z,92.72
2023-04-09T08:36:59.110Z,92.66
2023-04-09T08:37:59.088Z,90.72
2023-04-09T08:38:59.028Z,88.99
2023-04-09T08:39:59.005Z,89.24
2023-04-09T08:40:59.057Z,91.53
2023-04-09T08:41:59.064Z,91.22
2023-04-09T08:42:58.951Z,91.43
2023-04-09T08:43:59.710Z,91.89
2023-04-09T08:44:59.042Z,92.50
2023-04-09T08:45:59.009Z,88.63
2023-04-09T08:46:59.714Z,87.51
2023-04-09T08:47:58.911Z,89.97
2023-04-09T08:48:58.921Z,92.05
2023-04-09T08:49:58.975Z,88.51
2023-04-09T08:50:59.021Z,88.36
2023-04-09T08:51:59.058Z,88.33
2023-04-09T08:52:59.099Z,87.95
2023-04-09T08:54:00.189Z,89.85
2023-04-09T08:54:59.192Z,92.79
2023-04-09T08:55:59.136Z,90.46
2023-04-09T08:56:59.076Z,90.13
2023-04-09T08:57:59.081Z,90.22
2023-04-09T08:58:59.034Z,89.55
2023-04-09T08:59:59.028Z,88.82
2023-04-09T09:00:59.020Z,90.50
2023-04-09T09:01:59.102Z,89.52
2023-04-09T09:02:59.065Z,89.17
2023-04-09T09:03:59.041Z,89.63
2023-04-09T09:04:58.909Z,86.69
2023-04-09T09:05:58.891Z,90.02
2023-04-09T09:06:58.866Z,90.14
2023-04-09T09:07:58.987Z,90.99
2023-04-09T09:08:58.839Z,90.63
2023-04-09T09:09:58.847Z,87.37
2023-04-09T09:10:58.856Z,86.66
2023-04-09T09:11:58.782Z,87.39
2023-04-09T09:12:58.758Z,88.05
2023-04-09T09:13:58.732Z,87.84
2023-04-09T09:14:58.718Z,90.82
2023-04-09T09:15:58.688Z,87.46
2023-04-09T09:16:58.717Z,86.56
2023-04-09T09:17:58.676Z,89.79
2023-04-09T09:18:58.784Z,89.49
2023-04-09T09:19:58.767Z,90.89
2023-04-09T09:20:58.590Z,88.96
2023-04-09T09:21:58.569Z,87.42
2023-04-09T09:22:58.546Z,88.43
2023-04-09T09:23:58.542Z,87.51
2023-04-09T09:24:58.554Z,90.00
2023-04-09T09:25:58.507Z,88.21
2023-04-09T09:26:58.456Z,88.93
2023-04-09T09:27:58.438Z,88.71
2023-04-09T09:28:58.420Z,89.43
2023-04-09T09:29:58.589Z,89.20
2023-04-09T09:30:58.413Z,89.06
2023-04-09T09:31:58.375Z,87.48
2023-04-09T09:32:58.379Z,87.41
2023-04-09T09:33:58.339Z,87.17
2023-04-09T09:34:58.393Z,89.69
2023-04-09T09:35:58.964Z,89.20
2023-04-09T09:36:58.471Z,88.06
2023-04-09T09:37:58.645Z,86.68
2023-04-09T09:38:58.551Z,87.42
2023-04-09T09:39:58.592Z,89.67
2023-04-09T09:40:58.641Z,87.48
2023-04-09T09:41:58.690Z,86.46
2023-04-09T09:42:58.723Z,90.45
2023-04-09T09:43:58.740Z,88.36
2023-04-09T09:44:59.032Z,88.13
2023-04-09T09:45:58.857Z,87.40
2023-04-09T09:46:58.875Z,87.07
2023-04-09T09:47:58.922Z,90.29
2023-04-09T09:48:58.927Z,87.23
2023-04-09T09:49:59.025Z,90.64
2023-04-09T09:50:59.006Z,86.59
2023-04-09T09:51:59.050Z,88.28
2023-04-09T09:52:59.188Z,87.79
2023-04-09T09:53:59.133Z,88.22
2023-04-09T09:54:59.216Z,87.31
2023-04-09T09:55:59.263Z,88.24
2023-04-09T09:56:59.351Z,87.20
2023-04-09T09:57:59.257Z,89.02
2023-04-09T09:58:59.298Z,89.64
2023-04-09T09:59:59.337Z,86.87
2023-04-09T10:00:59.401Z,85.55
2023-04-09T10:01:59.502Z,87.38
2023-04-09T10:02:59.699Z,84.86
2023-04-09T10:03:59.494Z,88.56
2023-04-09T10:04:59.532Z,86.83
2023-04-09T10:05:59.570Z,84.99
2023-04-09T10:06:59.613Z,87.85
2023-04-09T10:08:00.535Z,86.82
2023-04-09T10:08:59.694Z,83.97
2023-04-09T10:09:59.743Z,86.48
2023-04-09T10:10:59.769Z,86.86
2023-04-09T10:11:59.817Z,87.54
2023-04-09T10:12:59.861Z,85.65
2023-04-09T10:13:59.897Z,83.82
2023-04-09T10:14:59.944Z,84.02
2023-04-09T10:16:01.131Z,82.64
2023-04-09T10:17:00.022Z,87.40
2023-04-09T10:18:00.261Z,83.10
2023-04-09T10:19:00.155Z,86.26
2023-04-09T10:20:00.167Z,84.13
2023-04-09T10:21:00.156Z,86.41
2023-04-09T10:22:00.173Z,82.64
2023-04-09T10:23:00.217Z,84.28
2023-04-09T10:24:00.269Z,82.89
2023-04-09T10:25:00.280Z,83.20
2023-04-09T10:26:00.447Z,83.19
2023-04-09T10:27:00.357Z,85.42
2023-04-09T10:28:00.387Z,82.58
2023-04-09T10:29:00.438Z,84.65
2023-04-09T10:30:01.097Z,82.76
2023-04-09T10:31:00.745Z,82.67
2023-04-09T10:32:00.557Z,83.52
2023-04-09T10:33:00.646Z,84.36
2023-04-09T10:34:00.618Z,81.68
2023-04-09T10:35:00.662Z,84.16
2023-04-09T10:36:00.768Z,85.66
2023-04-09T10:37:00.756Z,85.04
2023-04-09T10:38:00.789Z,82.19
2023-04-09T10:39:00.827Z,81.34
2023-04-09T10:40:00.871Z,84.99
2023-04-09T10:41:00.912Z,82.44
2023-04-09T10:42:00.952Z,83.63
2023-04-09T10:43:00.993Z,81.56
2023-04-09T10:44:01.026Z,84.10
2023-04-09T10:45:01.137Z,84.20
2023-04-09T10:46:01.151Z,83.24
2023-04-09T10:47:01.140Z,84.26
2023-04-09T10:48:01.234Z,81.25
2023-04-09T10:49:01.243Z,82.42
2023-04-09T10:50:01.266Z,79.96
2023-04-09T10:51:01.318Z,83.60
2023-04-09T10:52:01.364Z,80.29
2023-04-09T10:53:01.557Z,79.12
2023-04-09T10:54:01.456Z,81.28
2023-04-09T10:55:01.505Z,84.67
2023-04-09T10:56:01.584Z,83.72
2023-04-09T10:57:01.594Z,81.24
2023-04-09T10:58:02.536Z,83.16
2023-04-09T10:59:01.671Z,84.73
2023-04-09T11:00:01.718Z,81.66
2023-04-09T11:01:02.509Z,83.95
2023-04-09T11:02:01.885Z,82.73
2023-04-09T11:03:02.178Z,83.12
2023-04-09T11:04:01.917Z,82.49
2023-04-09T11:05:02.087Z,84.51
2023-04-09T11:06:02.050Z,84.00
2023-04-09T11:07:01.973Z,84.21
2023-04-09T11:08:02.020Z,85.96
2023-04-09T11:09:02.060Z,85.51
2023-04-09T11:10:02.118Z,83.64
2023-04-09T11:11:02.416Z,84.20
2023-04-09T11:12:02.188Z,85.91
2023-04-09T11:13:02.225Z,86.01
2023-04-09T11:14:02.279Z,83.86
2023-04-09T11:15:02.308Z,84.41
2023-04-09T11:16:02.350Z,85.98
2023-04-09T11:17:02.371Z,85.43
2023-04-09T11:18:02.488Z,85.34
2023-04-09T11:19:02.458Z,86.29
2023-04-09T11:20:02.514Z,85.51
2023-04-09T11:21:02.550Z,83.54
2023-04-09T11:22:02.584Z,86.14
2023-04-09T11:23:02.634Z,86.11
2023-04-09T11:24:02.690Z,84.83
2023-04-09T11:25:02.714Z,85.69
2023-04-09T11:26:02.777Z,86.76
2023-04-09T11:27:02.960Z,85.34
2023-04-09T11:28:02.820Z,86.24
2023-04-09T11:29:02.995Z,84.85
2023-04-09T11:30:02.913Z,87.03
2023-04-09T11:31:03.024Z,87.12
2023-04-09T11:32:02.991Z,86.54
2023-04-09T11:33:03.127Z,84.29
2023-04-09T11:34:03.060Z,87.45
2023-04-09T11:35:03.100Z,84.26
2023-04-09T11:36:04.091Z,84.59
2023-04-09T11:37:03.061Z,85.02
2023-04-09T11:38:04.044Z,85.63
2023-04-09T11:39:03.008Z,86.13
2023-04-09T11:40:02.984Z,88.42
2023-04-09T11:41:02.972Z,88.70
2023-04-09T11:42:02.956Z,89.09
2023-04-09T11:43:02.937Z,89.19
2023-04-09T11:44:02.921Z,89.05
2023-04-09T11:45:02.930Z,89.02
2023-04-09T11:46:02.976Z,89.14
2023-04-09T11:47:04.742Z,87.28
2023-04-09T11:48:03.256Z,87.75
2023-04-09T11:49:03.116Z,86.99
2023-04-09T11:50:03.165Z,88.06
2023-04-09T11:51:03.177Z,87.83
2023-04-09T11:52:03.217Z,87.65
2023-04-09T11:53:03.270Z,86.79
2023-04-09T11:54:03.340Z,89.21
2023-04-09T11:55:03.325Z,85.87
2023-04-09T11:56:03.543Z,87.10
2023-04-09T11:57:03.436Z,86.96
2023-04-09T11:58:03.486Z,89.23
2023-04-09T11:59:03.501Z,87.98
2023-04-09T12:00:05.361Z,89.28
2023-04-09T12:01:03.589Z,88.27
2023-04-09T12:02:03.701Z,88.86
2023-04-09T12:03:04.096Z,89.39
2023-04-09T12:04:04.049Z,87.58
2023-04-09T12:05:03.807Z,87.83
2023-04-09T12:06:04.150Z,86.51
2023-04-09T12:07:03.843Z,90.46
2023-04-09T12:08:03.884Z,87.98
2023-04-09T12:09:03.925Z,85.81
2023-04-09T12:10:03.973Z,86.69
2023-04-09T12:11:04.040Z,90.41
2023-04-09T12:12:05.045Z,87.80
2023-04-09T12:13:04.149Z,91.38
2023-04-09T12:14:04.130Z,88.31
2023-04-09T12:15:04.340Z,89.51
2023-04-09T12:16:04.279Z,87.78
2023-04-09T12:17:04.322Z,87.59
2023-04-09T12:18:04.438Z,88.46
2023-04-09T12:19:04.359Z,85.26
2023-04-09T12:20:04.403Z,86.77
2023-04-09T12:21:04.462Z,86.66
2023-04-09T12:22:04.490Z,88.03
2023-04-09T12:23:04.559Z,90.60
2023-04-09T12:24:04.577Z,87.04
2023-04-09T12:25:04.611Z,85.43
2023-04-09T12:26:04.662Z,88.19
2023-04-09T12:27:04.714Z,86.10
2023-04-09T12:28:04.754Z,88.52
2023-04-09T12:29:04.804Z,87.91
2023-04-09T12:30:04.842Z,87.03
2023-04-09T12:31:04.990Z,84.72
2023-04-09T12:32:05.006Z,87.33
2023-04-09T12:33:05.068Z,87.52
2023-04-09T12:34:05.016Z,86.94
2023-04-09T12:35:05.059Z,85.44
2023-04-09T12:36:05.129Z,88.41
2023-04-09T12:37:05.146Z,85.44
2023-04-09T12:38:05.190Z,85.65
2023-04-09T12:39:05.244Z,85.68
2023-04-09T12:40:05.294Z,90.62
2023-04-09T12:41:06.150Z,88.91
2023-04-09T12:42:05.397Z,86.33